Time,TemperatureF,DewpointF,PressureIn,WindDirection,WindDirectionDegrees,WindSpeedMPH,WindSpeedGustMPH,Humidity,HourlyPrecipIn,Conditions,Clouds,dailyrainin,SoftwareType,DateUTC
2013-09-17 00:12:00,86.2,49.0,29.66,SW,221,0.0,-999.0,28,-99.99,,,0.00,weatherlink.com 1.10,2013-09-17 07:12:00,
2013-09-17 00:27:00,85.7,51.0,29.65,SW,221,0.0,-999.0,30,-99.99,,,0.00,weatherlink.com 1.10,2013-09-17 07:27:00,
2013-09-17 00:42:00,85.1,52.0,29.65,SW,221,0.0,-999.0,32,-99.99,,,0.00,weatherlink.com 1.10,2013-09-17 07:42:00,
2013-09-17 00:57:00,85.4,50.0,29.65,SW,221,3.0,-999.0,29,-99.99,,,0.00,weatherlink.com 1.10,2013-09-17 07:57:00,
2013-09-17 01:12:00,85.8,49.0,29.65,SW,221,0.0,-999.0,28,-99.99,,,0.00,weatherlink.com 1.10,2013-09-17 08:12:00,
2013-09-17 01:27:00,84.8,50.0,29.65,SW,221,0.0,-999.0,30,-99.99,,,0.00,weatherlink.com 1.10,2013-09-17 08:27:00,
2013-09-17 01:42:00,84.1,49.0,29.65,SW,221,0.0,-999.0,30,-99.99,,,0.00,weatherlink.com 1.10,2013-09-17 08:42:00,
2013-09-17 01:57:00,83.3,50.0,29.65,SW,221,0.0,-999.0,31,-99.99,,,0.00,weatherlink.com 1.10,2013-09-17 08:57:00,
2013-09-17 02:12:00,83.8,49.0,29.65,SW,221,3.0,-999.0,30,-99.99,,,0.00,weatherlink.com 1.10,2013-09-17 09:12:00,
2013-09-17 02:27:00,84.3,49.0,29.64,SW,221,2.0,-999.0,29,-99.99,,,0.00,weatherlink.com 1.10,2013-09-17 09:27:00,
2013-09-17 02:42:00,84.2,50.0,29.64,SW,221,0.0,-999.0,30,-99.99,,,0.00,weatherlink.com 1.10,2013-09-17 09:42:00,
2013-09-17 02:58:00,83.3,49.0,29.64,SW,221,2.0,-999.0,30,-99.99,,,0.00,weatherlink.com 1.10,2013-09-17 09:58:00,
2013-09-17 03:13:00,83.8,48.0,29.64,SW,221,0.0,-999.0,29,-99.99,,,0.00,weatherlink.com 1.10,2013-09-17 10:13:00,
2013-09-17 03:28:00,83.6,49.0,29.64,SW,221,0.0,-999.0,30,-99.99,,,0.00,weatherlink.com 1.10,2013-09-17 10:28:00,
2013-09-17 03:43:00,82.6,50.0,29.64,SW,221,0.0,-999.0,32,-99.99,,,0.00,weatherlink.com 1.10,2013-09-17 10:43:00,
2013-09-17 03:58:00,80.4,50.0,29.64,SW,221,0.0,-999.0,35,-99.99,,,0.00,weatherlink.com 1.10,2013-09-17 10:58:00,
2013-09-17 04:13:00,79.0,51.0,29.64,SW,221,0.0,-999.0,37,-99.99,,,0.00,weatherlink.com 1.10,2013-09-17 11:13:00,
2013-09-17 04:28:00,78.7,50.0,29.64,SW,221,0.0,-999.0,37,-99.99,,,0.00,weatherlink.com 1.10,2013-09-17 11:28:00,
2013-09-17 04:43:00,78.5,51.0,29.64,SW,221,0.0,-999.0,39,-99.99,,,0.00,weatherlink.com 1.10,2013-09-17 11:43:00,
2013-09-17 04:58:00,77.6,51.0,29.64,SW,221,1.0,-999.0,39,-99.99,,,0.00,weatherlink.com 1.10,2013-09-17 11:58:00,
2013-09-17 05:13:00,78.9,50.0,29.64,SW,221,0.0,-999.0,37,-99.99,,,0.00,weatherlink.com 1.10,2013-09-17 12:13:00,
2013-09-17 05:28:00,79.3,50.0,29.64,SW,221,2.0,-999.0,36,-99.99,,,0.00,weatherlink.com 1.10,2013-09-17 12:28:00,
2013-09-17 05:43:00,79.9,51.0,29.65,SW,221,1.0,-999.0,36,-99.99,,,0.00,weatherlink.com 1.10,2013-09-17 12:43:00,
2013-09-17 05:58:00,80.6,50.0,29.65,SW,221,2.0,-999.0,34,-99.99,,,0.00,weatherlink.com 1.10,2013-09-17 12:58:00,
2013-09-17 06:13:00,80.5,50.0,29.66,SW,221,2.0,-999.0,35,-99.99,,,0.00,weatherlink.com 1.10,2013-09-17 13:13:00,
2013-09-17 06:28:00,79.8,51.0,29.66,SW,221,5.0,-999.0,36,-99.99,,,0.00,weatherlink.com 1.10,2013-09-17 13:28:00,
2013-09-17 06:43:00,80.1,50.0,29.66,SW,221,2.0,-999.0,35,-99.99,,,0.00,weatherlink.com 1.10,2013-09-17 13:43:00,
2013-09-17 06:58:00,79.8,53.0,29.67,SW,221,0.0,-999.0,39,-99.99,,,0.00,weatherlink.com 1.10,2013-09-17 13:58:00,
2013-09-17 07:13:00,80.3,53.0,29.67,SW,221,0.0,-999.0,39,-99.99,,,0.00,weatherlink.com 1.10,2013-09-17 14:13:00,
2013-09-17 07:28:00,82.2,52.0,29.67,SW,221,0.0,-999.0,35,-99.99,,,0.00,weatherlink.com 1.10,2013-09-17 14:28:00,
2013-09-17 07:43:00,83.6,55.0,29.67,SW,221,0.0,-999.0,38,-99.99,,,0.00,weatherlink.com 1.10,2013-09-17 14:43:00,
2013-09-17 07:58:00,86.8,55.0,29.67,SW,221,0.0,-999.0,34,-99.99,,,0.00,weatherlink.com 1.10,2013-09-17 14:58:00,
2013-09-17 08:13:00,89.8,57.0,29.68,SW,221,3.0,-999.0,33,-99.99,,,0.00,weatherlink.com 1.10,2013-09-17 15:13:00,
2013-09-17 08:28:00,91.5,59.0,29.68,SW,221,2.0,-999.0,33,-99.99,,,0.00,weatherlink.com 1.10,2013-09-17 15:28:00,
2013-09-17 08:43:00,93.1,59.0,29.67,SW,221,3.0,-999.0,32,-99.99,,,0.00,weatherlink.com 1.10,2013-09-17 15:43:00,
2013-09-17 08:58:00,94.8,60.0,29.67,SW,221,3.0,-999.0,31,-99.99,,,0.00,weatherlink.com 1.10,2013-09-17 15:58:00,
2013-09-17 09:13:00,96.4,59.0,29.67,SW,221,0.0,-999.0,29,-99.99,,,0.00,weatherlink.com 1.10,2013-09-17 16:13:00,
2013-09-17 09:28:00,97.7,59.0,29.66,SW,221,3.0,-999.0,28,-99.99,,,0.00,weatherlink.com 1.10,2013-09-17 16:28:00,
2013-09-17 09:43:00,98.6,59.0,29.67,SW,221,2.0,-999.0,27,-99.99,,,0.00,weatherlink.com 1.10,2013-09-17 16:43:00,
2013-09-17 09:58:00,99.1,60.0,29.67,SW,221,4.0,-999.0,27,-99.99,,,0.00,weatherlink.com 1.10,2013-09-17 16:58:00,
2013-09-17 10:13:00,99.2,60.0,29.67,SSE,157,7.0,-999.0,27,-99.99,,,0.00,weatherlink.com 1.10,2013-09-17 17:13:00,
2013-09-17 10:28:00,99.1,60.0,29.67,SE,142,6.0,-999.0,27,-99.99,,,0.00,weatherlink.com 1.10,2013-09-17 17:28:00,
2013-09-17 10:43:00,99.6,59.0,29.66,SSE,167,5.0,-999.0,26,-99.99,,,0.00,weatherlink.com 1.10,2013-09-17 17:43:00,
2013-09-17 10:59:00,100.7,58.0,29.66,SSE,159,6.0,-999.0,24,-99.99,,,0.00,weatherlink.com 1.10,2013-09-17 17:59:00,
2013-09-17 11:14:00,101.5,57.0,29.65,South,172,5.0,-999.0,23,-99.99,,,0.00,weatherlink.com 1.10,2013-09-17 18:14:00,
2013-09-17 11:29:00,101.9,59.0,29.64,SSE,157,5.0,-999.0,24,-99.99,,,0.00,weatherlink.com 1.10,2013-09-17 18:29:00,
2013-09-17 11:44:00,102.8,57.0,29.64,South,173,4.0,-999.0,22,-99.99,,,0.00,weatherlink.com 1.10,2013-09-17 18:44:00,
2013-09-17 11:59:00,103.4,55.0,29.63,South,184,5.0,-999.0,20,-99.99,,,0.00,weatherlink.com 1.10,2013-09-17 18:59:00,
2013-09-17 12:14:00,104.3,56.0,29.62,South,188,5.0,-999.0,20,-99.99,,,0.00,weatherlink.com 1.10,2013-09-17 19:14:00,
2013-09-17 12:29:00,105.1,55.0,29.62,SSW,209,2.0,-999.0,19,-99.99,,,0.00,weatherlink.com 1.10,2013-09-17 19:29:00,
2013-09-17 12:44:00,105.5,55.0,29.61,West,259,2.0,-999.0,19,-99.99,,,0.00,weatherlink.com 1.10,2013-09-17 19:44:00,
2013-09-17 12:59:00,105.7,54.0,29.61,SSW,207,0.0,-999.0,18,-99.99,,,0.00,weatherlink.com 1.10,2013-09-17 19:59:00,
2013-09-17 13:14:00,106.2,53.0,29.60,SW,214,3.0,-999.0,17,-99.99,,,0.00,weatherlink.com 1.10,2013-09-17 20:14:00,
2013-09-17 13:29:00,106.2,51.0,29.59,SW,215,2.0,-999.0,16,-99.99,,,0.00,weatherlink.com 1.10,2013-09-17 20:29:00,
2013-09-17 13:44:00,106.2,51.0,29.59,South,174,8.0,-999.0,16,-99.99,,,0.00,weatherlink.com 1.10,2013-09-17 20:44:00,
2013-09-17 13:59:00,105.8,53.0,29.58,SSE,164,4.0,-999.0,17,-99.99,,,0.00,weatherlink.com 1.10,2013-09-17 20:59:00,
2013-09-17 14:13:00,106.5,48.0,29.58,West,260,5.0,-999.0,14,-99.99,,,0.00,weatherlink.com 1.10,2013-09-17 21:13:00,
2013-09-17 14:28:00,107.3,47.0,29.57,SW,236,1.0,-999.0,13,-99.99,,,0.00,weatherlink.com 1.10,2013-09-17 21:28:00,
2013-09-17 14:43:00,107.7,51.0,29.57,SSW,194,6.0,-999.0,15,-99.99,,,0.00,weatherlink.com 1.10,2013-09-17 21:43:00,
2013-09-17 14:58:00,106.7,52.0,29.56,West,270,4.0,-999.0,16,-99.99,,,0.00,weatherlink.com 1.10,2013-09-17 21:58:00,
2013-09-17 15:13:00,107.1,52.0,29.56,SSW,209,6.0,-999.0,16,-99.99,,,0.00,weatherlink.com 1.10,2013-09-17 22:13:00,
2013-09-17 15:28:00,106.8,50.0,29.55,SSW,197,9.0,-999.0,15,-99.99,,,0.00,weatherlink.com 1.10,2013-09-17 22:28:00,
2013-09-17 15:43:00,106.0,50.0,29.55,SSE,150,7.0,-999.0,15,-99.99,,,0.00,weatherlink.com 1.10,2013-09-17 22:43:00,
2013-09-17 15:58:00,106.8,46.0,29.55,SSW,200,4.0,-999.0,13,-99.99,,,0.00,weatherlink.com 1.10,2013-09-17 22:58:00,
2013-09-17 16:13:00,106.4,46.0,29.54,SSW,205,7.0,-999.0,13,-99.99,,,0.00,weatherlink.com 1.10,2013-09-17 23:13:00,
2013-09-17 16:28:00,105.8,46.0,29.54,South,178,9.0,-999.0,13,-99.99,,,0.00,weatherlink.com 1.10,2013-09-17 23:28:00,
2013-09-17 16:43:00,105.6,43.0,29.53,South,186,5.0,-999.0,12,-99.99,,,0.00,weatherlink.com 1.10,2013-09-17 23:43:00,
2013-09-17 16:59:00,105.2,43.0,29.53,South,170,17.0,-999.0,12,-99.99,,,0.00,weatherlink.com 1.10,2013-09-17 23:59:00,
2013-09-17 17:14:00,104.7,43.0,29.53,SSW,207,6.0,-999.0,12,-99.99,,,0.00,weatherlink.com 1.10,2013-09-18 00:14:00,
2013-09-17 17:29:00,104.2,42.0,29.52,SE,141,6.0,-999.0,12,-99.99,,,0.00,weatherlink.com 1.10,2013-09-18 00:29:00,
2013-09-17 17:44:00,103.6,42.0,29.53,South,169,7.0,-999.0,12,-99.99,,,0.00,weatherlink.com 1.10,2013-09-18 00:44:00,
2013-09-17 17:59:00,103.0,41.0,29.52,South,188,6.0,-999.0,12,-99.99,,,0.00,weatherlink.com 1.10,2013-09-18 00:59:00,
2013-09-17 18:14:00,102.3,41.0,29.53,South,186,2.0,-999.0,12,-99.99,,,0.00,weatherlink.com 1.10,2013-09-18 01:14:00,
2013-09-17 18:29:00,101.6,40.0,29.53,SSW,199,1.0,-999.0,12,-99.99,,,0.00,weatherlink.com 1.10,2013-09-18 01:29:00,
2013-09-17 18:44:00,100.6,39.0,29.53,SW,217,4.0,-999.0,12,-99.99,,,0.00,weatherlink.com 1.10,2013-09-18 01:44:00,
2013-09-17 18:59:00,100.3,41.0,29.53,South,175,0.0,-999.0,13,-99.99,,,0.00,weatherlink.com 1.10,2013-09-18 01:59:00,
2013-09-17 19:14:00,99.5,41.0,29.53,SSW,198,2.0,-999.0,13,-99.99,,,0.00,weatherlink.com 1.10,2013-09-18 02:14:00,
2013-09-17 19:29:00,98.9,42.0,29.54,SW,220,2.0,-999.0,14,-99.99,,,0.00,weatherlink.com 1.10,2013-09-18 02:29:00,
2013-09-17 19:44:00,98.7,42.0,29.54,SW,233,2.0,-999.0,14,-99.99,,,0.00,weatherlink.com 1.10,2013-09-18 02:44:00,
2013-09-17 19:59:00,97.5,41.0,29.55,SW,220,1.0,-999.0,14,-99.99,,,0.00,weatherlink.com 1.10,2013-09-18 02:59:00,
2013-09-17 20:14:00,96.7,42.0,29.55,SW,219,2.0,-999.0,15,-99.99,,,0.00,weatherlink.com 1.10,2013-09-18 03:14:00,
2013-09-17 20:29:00,96.0,43.0,29.55,SW,219,2.0,-999.0,16,-99.99,,,0.00,weatherlink.com 1.10,2013-09-18 03:29:00,
2013-09-17 20:44:00,94.8,44.0,29.56,SW,218,2.0,-999.0,17,-99.99,,,0.00,weatherlink.com 1.10,2013-09-18 03:44:00,
2013-09-17 20:59:00,93.3,42.0,29.56,SW,218,1.0,-999.0,17,-99.99,,,0.00,weatherlink.com 1.10,2013-09-18 03:59:00,
2013-09-17 21:14:00,91.7,44.0,29.56,SW,218,0.0,-999.0,19,-99.99,,,0.00,weatherlink.com 1.10,2013-09-18 04:14:00,
2013-09-17 21:29:00,90.6,43.0,29.57,SW,218,2.0,-999.0,19,-99.99,,,0.00,weatherlink.com 1.10,2013-09-18 04:29:00,
2013-09-17 21:44:00,90.3,44.0,29.56,SW,218,1.0,-999.0,20,-99.99,,,0.00,weatherlink.com 1.10,2013-09-18 04:44:00,
2013-09-17 21:59:00,89.7,44.0,29.57,SW,218,3.0,-999.0,20,-99.99,,,0.00,weatherlink.com 1.10,2013-09-18 04:59:00,
2013-09-17 22:14:00,89.6,44.0,29.57,SW,217,0.0,-999.0,20,-99.99,,,0.00,weatherlink.com 1.10,2013-09-18 05:14:00,
2013-09-17 22:29:00,88.8,43.0,29.57,SW,217,0.0,-999.0,20,-99.99,,,0.00,weatherlink.com 1.10,2013-09-18 05:29:00,
2013-09-17 22:44:00,88.0,42.0,29.58,SW,217,0.0,-999.0,20,-99.99,,,0.00,weatherlink.com 1.10,2013-09-18 05:44:00,
2013-09-17 22:59:00,87.7,41.0,29.58,SW,217,0.0,-999.0,19,-99.99,,,0.00,weatherlink.com 1.10,2013-09-18 05:59:00,
2013-09-17 23:14:00,87.9,42.0,29.58,SSE,164,2.0,-999.0,20,-99.99,,,0.00,weatherlink.com 1.10,2013-09-18 06:14:00,
2013-09-17 23:29:00,87.1,41.0,29.59,SSE,164,1.0,-999.0,20,-99.99,,,0.00,weatherlink.com 1.10,2013-09-18 06:29:00,
2013-09-17 23:44:00,86.9,41.0,29.59,SSE,166,2.0,-999.0,20,-99.99,,,0.00,weatherlink.com 1.10,2013-09-18 06:44:00,
2013-09-17 23:59:00,86.4,41.0,29.59,SSE,166,2.0,-999.0,20,-99.99,,,0.00,weatherlink.com 1.10,2013-09-18 06:59:00,